Time;durP1;ratioP1;P1;durP2;ratioP2;P2;SDS_P1;SDS_P2;PMS_P1;PMS_P2;Temp;Humidity;BMP_temperature;BMP_pressure;BME280_temperature;BME280_humidity;BME280_pressure;Samples;Min_cycle;Max_cycle;Signal;HPM_P1;HPM_P2
2021/12/04 00:02:23;;;;;;;0.13;0.13;;;3.30;99.90;;;;;;5064783;28;20605;-67
2021/12/04 00:04:52;;;;;;;0.10;0.10;;;3.30;99.90;;;;;;5069144;28;20732;-67
2021/12/04 00:07:21;;;;;;;0.10;0.10;;;3.30;99.90;;;;;;5057282;28;20665;-66
2021/12/04 00:09:50;;;;;;;0.10;0.10;;;3.30;99.90;;;;;;5064870;28;20991;-67
2021/12/04 00:12:17;;;;;;;0.13;0.13;;;3.30;99.90;;;;;;5058678;28;20608;-67
2021/12/04 00:14:46;;;;;;;0.10;0.10;;;3.30;99.90;;;;;;5067269;28;20631;-67
2021/12/04 00:17:13;;;;;;;0.10;0.10;;;3.30;99.90;;;;;;5059030;28;20727;-66
2021/12/04 00:19:41;;;;;;;0.10;0.10;;;3.30;99.90;;;;;;5060255;28;20629;-67
2021/12/04 00:22:09;;;;;;;0.10;0.10;;;3.30;99.90;;;;;;5059993;28;20614;-67
2021/12/04 00:24:36;;;;;;;0.10;0.10;;;3.30;99.90;;;;;;5061749;28;20727;-66
2021/12/04 00:27:04;;;;;;;0.10;0.10;;;3.30;99.90;;;;;;5062655;28;20692;-67
2021/12/04 00:29:30;;;;;;;0.10;0.10;;;3.30;99.90;;;;;;5063208;28;20644;-67
2021/12/04 00:32:01;;;;;;;0.10;0.10;;;3.30;99.90;;;;;;5062950;28;21026;-65
2021/12/04 00:34:29;;;;;;;0.10;0.10;;;3.30;99.90;;;;;;5067215;28;20735;-67
2021/12/04 00:37:10;;;;;;;0.10;0.10;;;3.30;99.90;;;;;;5068448;28;20674;-68
2021/12/04 00:50:36;;;;;;;0.10;0.10;;;3.40;99.90;;;;;;5057266;28;20620;-67
2021/12/04 00:53:05;;;;;;;0.10;0.10;;;3.40;99.90;;;;;;5059339;28;21102;-67
2021/12/04 00:55:32;;;;;;;0.10;0.10;;;3.30;99.90;;;;;;5064308;28;20616;-67
2021/12/04 00:57:58;;;;;;;0.10;0.10;;;3.40;99.90;;;;;;5056448;28;20678;-66
2021/12/04 01:00:25;;;;;;;0.10;0.10;;;3.30;99.90;;;;;;5061740;28;20694;-68
2021/12/04 01:02:53;;;;;;;0.17;0.17;;;3.30;99.90;;;;;;5065926;28;20621;-67
2021/12/04 01:05:20;;;;;;;0.10;0.10;;;3.40;99.90;;;;;;5065247;28;20686;-68
2021/12/04 01:07:47;;;;;;;0.10;0.10;;;3.40;99.90;;;;;;5060520;28;20683;-68
2021/12/04 01:10:15;;;;;;;0.10;0.10;;;3.40;99.90;;;;;;5066554;28;20716;-68
2021/12/04 01:12:43;;;;;;;0.10;0.10;;;3.40;99.90;;;;;;5068707;28;20658;-68
2021/12/04 01:15:10;;;;;;;0.20;0.20;;;3.40;99.90;;;;;;5065399;28;20639;-67
2021/12/04 01:17:39;;;;;;;0.10;0.10;;;3.40;99.90;;;;;;5066414;28;20656;-68
2021/12/04 01:20:06;;;;;;;0.10;0.10;;;3.40;99.90;;;;;;5065475;28;20625;-69
2021/12/04 01:22:34;;;;;;;0.10;0.10;;;3.40;99.90;;;;;;5066073;28;20620;-67
2021/12/04 01:25:01;;;;;;;0.10;0.10;;;3.40;99.90;;;;;;5064935;28;20748;-67
2021/12/04 01:27:29;;;;;;;0.10;0.10;;;3.40;99.90;;;;;;5059652;28;20740;-68
2021/12/04 01:29:56;;;;;;;0.10;0.10;;;3.40;99.90;;;;;;5067098;28;20615;-66
2021/12/04 01:32:23;;;;;;;0.10;0.10;;;3.40;99.90;;;;;;5066354;28;20632;-67
2021/12/04 01:34:50;;;;;;;0.10;0.10;;;3.40;99.90;;;;;;5064666;28;20675;-67
2021/12/04 01:37:17;;;;;;;0.10;0.10;;;3.40;99.90;;;;;;5057719;28;20780;-67
2021/12/04 01:39:44;;;;;;;0.10;0.10;;;3.40;99.90;;;;;;5060700;28;20698;-67
2021/12/04 01:42:11;;;;;;;0.10;0.10;;;3.40;99.90;;;;;;5064123;28;20752;-67
2021/12/04 01:44:39;;;;;;;0.10;0.10;;;3.40;99.90;;;;;;5053026;28;20625;-67
2021/12/04 01:47:14;;;;;;;0.10;0.10;;;3.40;99.90;;;;;;5056365;28;20664;-66
2021/12/04 01:49:41;;;;;;;0.20;0.20;;;3.40;99.90;;;;;;5066582;28;20677;-66
2021/12/04 01:52:08;;;;;;;0.10;0.10;;;3.30;99.90;;;;;;5064363;28;20631;-67
2021/12/04 01:54:35;;;;;;;0.10;0.10;;;3.40;99.90;;;;;;5065139;28;20660;-67
2021/12/04 01:57:03;;;;;;;0.10;0.10;;;3.40;99.90;;;;;;5061910;28;20644;-67
2021/12/04 01:59:31;;;;;;;0.13;0.13;;;3.40;99.90;;;;;;5062230;28;20682;-66
2021/12/04 02:01:59;;;;;;;0.10;0.10;;;3.40;99.90;;;;;;5063528;28;21019;-66
2021/12/04 02:04:27;;;;;;;0.10;0.10;;;3.40;99.90;;;;;;5063342;28;20625;-67
2021/12/04 02:06:54;;;;;;;0.17;0.17;;;3.40;99.90;;;;;;5059343;28;21225;-66
2021/12/04 02:09:21;;;;;;;0.20;0.20;;;3.40;99.90;;;;;;5060499;28;20638;-66
2021/12/04 02:11:48;;;;;;;0.20;0.20;;;3.40;99.90;;;;;;5064785;28;20722;-67
2021/12/04 02:14:15;;;;;;;0.10;0.10;;;3.40;99.90;;;;;;5066485;28;20716;-66
2021/12/04 02:16:42;;;;;;;0.10;0.10;;;3.40;99.90;;;;;;5071244;28;20672;-67
2021/12/04 02:19:10;;;;;;;0.10;0.10;;;3.40;99.90;;;;;;5065719;28;20728;-67
2021/12/04 02:21:38;;;;;;;0.10;0.10;;;3.40;99.90;;;;;;5066233;28;20665;-66
2021/12/04 02:24:06;;;;;;;0.10;0.10;;;3.40;99.90;;;;;;5057698;28;20628;-67
2021/12/04 02:26:33;;;;;;;0.10;0.10;;;3.40;99.90;;;;;;5063707;28;20681;-66
2021/12/04 02:28:59;;;;;;;0.10;0.10;;;3.40;99.90;;;;;;5063307;28;20635;-67
2021/12/04 02:31:28;;;;;;;0.10;0.10;;;3.40;99.90;;;;;;5064085;28;20617;-67
2021/12/04 02:33:55;;;;;;;0.10;0.10;;;3.40;99.90;;;;;;5062393;28;20725;-66
2021/12/04 02:36:22;;;;;;;0.13;0.13;;;3.40;99.90;;;;;;5068266;28;20611;-66
2021/12/04 02:38:51;;;;;;;0.10;0.10;;;3.40;99.90;;;;;;5062952;28;20736;-67
2021/12/04 02:41:19;;;;;;;0.10;0.10;;;3.40;99.90;;;;;;5061628;28;20782;-66
2021/12/04 02:43:47;;;;;;;0.10;0.10;;;3.40;99.90;;;;;;5064213;28;20613;-66
2021/12/04 02:46:15;;;;;;;0.10;0.10;;;3.40;99.90;;;;;;5065976;28;20636;-66
2021/12/04 02:48:43;;;;;;;0.10;0.10;;;3.50;99.90;;;;;;5060577;28;20602;-67
2021/12/04 02:51:10;;;;;;;0.10;0.10;;;3.50;99.90;;;;;;5056182;28;20621;-66
2021/12/04 02:53:37;;;;;;;0.20;0.20;;;3.40;99.90;;;;;;5058787;28;20621;-67
2021/12/04 02:56:06;;;;;;;0.10;0.10;;;3.50;99.90;;;;;;5060246;28;20625;-67
2021/12/04 02:58:34;;;;;;;0.10;0.10;;;3.50;99.90;;;;;;5061037;28;20711;-67
2021/12/04 03:01:02;;;;;;;0.10;0.10;;;3.50;99.90;;;;;;5063910;28;20656;-67
2021/12/04 03:03:31;;;;;;;0.10;0.10;;;3.50;99.90;;;;;;5061591;28;20635;-67
2021/12/04 03:05:58;;;;;;;0.10;0.10;;;3.40;99.90;;;;;;5062588;28;20619;-67
2021/12/04 03:08:26;;;;;;;0.10;0.10;;;3.40;99.90;;;;;;5060744;28;20652;-67
2021/12/04 03:10:53;;;;;;;0.10;0.10;;;3.40;99.90;;;;;;5062526;28;20615;-66
2021/12/04 03:13:22;;;;;;;0.10;0.10;;;3.50;99.90;;;;;;5055558;28;20762;-65
2021/12/04 03:15:57;;;;;;;0.10;0.10;;;3.50;99.90;;;;;;5064728;28;20621;-67
2021/12/04 03:18:24;;;;;;;0.10;0.10;;;3.50;99.90;;;;;;5057009;28;20651;-66
2021/12/04 03:20:53;;;;;;;0.13;0.13;;;3.50;99.90;;;;;;5061329;28;21296;-66
2021/12/04 03:23:27;;;;;;;0.17;0.17;;;3.50;99.90;;;;;;5051758;28;21098;-66
2021/12/04 03:25:55;;;;;;;0.10;0.10;;;3.50;99.90;;;;;;5064796;28;20631;-66
2021/12/04 03:28:25;;;;;;;0.10;0.10;;;3.50;99.90;;;;;;5061531;28;20640;-67
2021/12/04 03:30:56;;;;;;;0.10;0.10;;;3.50;99.90;;;;;;5062475;28;20659;-67
2021/12/04 03:41:36;;;;;;;0.10;0.10;;;3.50;99.90;;;;;;5061593;28;20741;-66
2021/12/04 03:44:05;;;;;;;0.10;0.10;;;3.50;99.90;;;;;;5061395;28;20714;-67
2021/12/04 03:46:31;;;;;;;0.10;0.10;;;3.50;99.90;;;;;;5061541;28;20664;-67
2021/12/04 03:48:58;;;;;;;0.10;0.10;;;3.50;99.90;;;;;;5064121;28;20706;-66
2021/12/04 03:51:25;;;;;;;0.20;0.20;;;3.50;99.90;;;;;;5064522;28;20642;-66
2021/12/04 03:53:52;;;;;;;0.20;0.20;;;3.50;99.90;;;;;;5059086;28;20677;-67
2021/12/04 03:56:24;;;;;;;0.10;0.10;;;3.50;99.90;;;;;;5059656;28;20629;-67
2021/12/04 03:58:51;;;;;;;0.10;0.10;;;3.40;99.90;;;;;;5061356;28;20605;-66
2021/12/04 04:01:19;;;;;;;0.13;0.13;;;3.40;99.90;;;;;;5064261;28;20652;-66
2021/12/04 04:03:47;;;;;;;0.10;0.10;;;3.40;99.90;;;;;;5056543;28;21203;-67
2021/12/04 04:06:14;;;;;;;0.10;0.10;;;3.40;99.90;;;;;;5062562;28;20644;-67
2021/12/04 04:08:41;;;;;;;0.10;0.10;;;3.40;99.90;;;;;;5058195;28;20707;-67
2021/12/04 04:11:09;;;;;;;0.20;0.20;;;3.40;99.90;;;;;;5063769;28;20619;-67
2021/12/04 04:13:40;;;;;;;0.20;0.20;;;3.30;99.90;;;;;;5063807;28;20636;-67
2021/12/04 04:16:07;;;;;;;0.10;0.10;;;3.30;99.90;;;;;;5062098;28;20613;-67
2021/12/04 04:18:35;;;;;;;0.10;0.10;;;3.30;99.90;;;;;;5062493;28;20716;-67
2021/12/04 04:21:02;;;;;;;0.10;0.10;;;3.30;99.90;;;;;;5061883;28;20617;-67
2021/12/04 04:23:30;;;;;;;0.10;0.10;;;3.30;99.90;;;;;;5054784;28;20676;-67
2021/12/04 04:25:57;;;;;;;0.10;0.10;;;3.30;99.90;;;;;;5063209;28;20617;-67
2021/12/04 04:28:24;;;;;;;0.10;0.10;;;3.20;99.90;;;;;;5060220;28;20659;-67
2021/12/04 04:30:51;;;;;;;0.10;0.10;;;3.20;99.90;;;;;;5064201;28;20628;-69
2021/12/04 04:33:18;;;;;;;0.10;0.10;;;3.20;99.90;;;;;;5062720;28;20625;-69
2021/12/04 04:35:55;;;;;;;0.10;0.10;;;3.20;99.90;;;;;;5065473;28;20633;-68
2021/12/04 04:38:32;;;;;;;0.20;0.20;;;3.10;99.90;;;;;;5058749;28;20755;-68
2021/12/04 04:57:44;;;;;;;0.10;0.10;;;3.10;99.90;;;;;;5063936;28;20682;-68
2021/12/04 05:00:31;;;;;;;0.10;0.10;;;3.10;99.90;;;;;;5066481;28;20613;-68
2021/12/04 05:11:18;;;;;;;0.10;0.10;;;3.10;99.90;;;;;;5067331;28;20613;-68
2021/12/04 05:13:45;;;;;;;0.10;0.10;;;3.00;99.90;;;;;;5068548;28;20612;-68
2021/12/04 05:16:14;;;;;;;0.20;0.20;;;3.00;99.90;;;;;;5069531;28;20793;-67
2021/12/04 05:18:53;;;;;;;0.10;0.10;;;3.10;99.90;;;;;;5066726;28;20658;-67
2021/12/04 05:21:20;;;;;;;0.10;0.10;;;3.10;99.90;;;;;;5063929;28;20615;-68
2021/12/04 05:23:51;;;;;;;0.10;0.10;;;3.10;99.90;;;;;;5062714;28;20604;-67
2021/12/04 05:26:24;;;;;;;0.10;0.10;;;3.10;99.90;;;;;;5066772;28;21048;-67
2021/12/04 05:28:51;;;;;;;0.20;0.20;;;3.10;99.90;;;;;;5066475;28;21013;-67
2021/12/04 05:31:20;;;;;;;0.10;0.10;;;3.10;99.90;;;;;;5062599;28;20678;-67
2021/12/04 05:33:48;;;;;;;0.10;0.10;;;3.10;99.90;;;;;;5065824;28;20615;-67
2021/12/04 05:36:16;;;;;;;0.10;0.10;;;3.10;99.90;;;;;;5063963;28;20621;-67
2021/12/04 05:38:43;;;;;;;0.17;0.17;;;3.10;99.90;;;;;;5062941;28;20640;-67
2021/12/04 05:41:12;;;;;;;0.10;0.10;;;3.10;99.90;;;;;;5065423;28;20629;-67
2021/12/04 05:43:39;;;;;;;0.10;0.10;;;3.10;99.90;;;;;;5063670;28;20625;-67
2021/12/04 05:46:12;;;;;;;0.10;0.10;;;3.10;99.90;;;;;;5066057;28;20628;-67
2021/12/04 05:48:45;;;;;;;0.10;0.10;;;3.10;99.90;;;;;;5062033;28;20644;-67
2021/12/04 05:51:24;;;;;;;0.10;0.10;;;3.10;99.90;;;;;;5066057;28;20674;-67
2021/12/04 05:53:58;;;;;;;0.17;0.17;;;3.10;99.90;;;;;;5062579;28;20616;-67
2021/12/04 05:56:28;;;;;;;0.10;0.10;;;3.10;99.90;;;;;;5064900;28;20706;-67
2021/12/04 05:58:56;;;;;;;0.10;0.10;;;3.10;99.90;;;;;;5062880;28;20613;-66
2021/12/04 06:01:24;;;;;;;0.10;0.10;;;3.10;99.90;;;;;;5066403;28;20639;-66
2021/12/04 06:03:51;;;;;;;0.10;0.10;;;3.10;99.90;;;;;;5062975;28;20671;-67
2021/12/04 06:06:19;;;;;;;0.17;0.17;;;3.10;99.90;;;;;;5060933;28;20628;-66
2021/12/04 06:08:46;;;;;;;0.20;0.20;;;3.10;99.90;;;;;;5066062;28;20625;-67
2021/12/04 06:11:14;;;;;;;0.10;0.10;;;3.10;99.90;;;;;;5066201;28;20668;-67
2021/12/04 06:13:42;;;;;;;0.10;0.10;;;3.10;99.90;;;;;;5068428;28;20627;-67
2021/12/04 06:16:10;;;;;;;0.20;0.20;;;3.10;99.90;;;;;;5068963;28;20625;-66
2021/12/04 06:18:37;;;;;;;0.10;0.10;;;3.10;99.90;;;;;;5065606;28;20656;-67
2021/12/04 06:23:49;;;;;;;0.10;0.10;;;3.10;99.90;;;;;;5064124;28;20619;-67
2021/12/04 06:26:16;;;;;;;0.20;0.20;;;3.10;99.90;;;;;;5064970;28;20601;-67
2021/12/04 06:28:45;;;;;;;0.10;0.10;;;3.00;99.90;;;;;;5082296;28;20691;-67
2021/12/04 06:31:14;;;;;;;0.10;0.10;;;3.10;99.90;;;;;;5060221;28;20732;-66
2021/12/04 06:33:41;;;;;;;0.20;0.20;;;3.10;99.90;;;;;;5064247;28;20613;-66
2021/12/04 06:36:09;;;;;;;0.10;0.10;;;3.10;99.90;;;;;;5063351;28;20624;-66
2021/12/04 06:38:37;;;;;;;0.10;0.10;;;3.10;99.90;;;;;;5064546;28;20624;-66
2021/12/04 06:41:05;;;;;;;0.20;0.20;;;3.10;99.90;;;;;;5062037;28;20631;-66
2021/12/04 06:43:33;;;;;;;0.17;0.17;;;3.10;99.90;;;;;;5059544;28;20654;-66
2021/12/04 06:46:03;;;;;;;0.10;0.10;;;3.10;99.90;;;;;;5065469;28;20966;-66
2021/12/04 06:48:39;;;;;;;0.10;0.10;;;3.00;99.90;;;;;;5060830;28;20752;-67
2021/12/04 06:51:14;;;;;;;0.10;0.10;;;3.00;99.90;;;;;;5066989;28;20615;-67
2021/12/04 06:53:44;;;;;;;0.10;0.10;;;3.00;99.90;;;;;;5063304;28;20616;-67
2021/12/04 06:56:12;;;;;;;0.10;0.10;;;3.00;99.90;;;;;;5065269;28;20620;-66
2021/12/04 06:58:40;;;;;;;0.10;0.10;;;3.00;99.90;;;;;;5060988;28;20625;-64
2021/12/04 07:01:10;;;;;;;0.10;0.10;;;3.00;99.90;;;;;;5060619;28;20649;-64
2021/12/04 07:03:38;;;;;;;0.10;0.10;;;3.00;99.90;;;;;;5054508;28;20699;-65
2021/12/04 07:06:05;;;;;;;0.10;0.10;;;3.00;99.90;;;;;;5053114;28;20629;-65
2021/12/04 07:08:32;;;;;;;0.17;0.17;;;3.00;99.90;;;;;;5053040;28;20664;-62
2021/12/04 07:11:00;;;;;;;0.10;0.10;;;3.00;99.90;;;;;;5053430;28;20620;-66
2021/12/04 07:13:27;;;;;;;0.10;0.10;;;3.00;99.90;;;;;;5051067;28;20650;-65
2021/12/04 07:16:01;;;;;;;0.10;0.10;;;3.00;99.90;;;;;;5053056;28;20627;-63
2021/12/04 07:18:30;;;;;;;0.10;0.10;;;3.00;99.90;;;;;;5054769;28;20680;-66
2021/12/04 07:20:57;;;;;;;0.10;0.10;;;3.00;99.90;;;;;;5054122;28;20942;-65
2021/12/04 07:23:24;;;;;;;0.20;0.20;;;3.00;99.90;;;;;;5054689;28;20796;-66
2021/12/04 07:25:51;;;;;;;0.10;0.10;;;3.00;99.90;;;;;;5056716;28;20682;-65
2021/12/04 07:28:18;;;;;;;0.10;0.10;;;3.00;99.90;;;;;;5057404;28;20652;-65
2021/12/04 07:30:45;;;;;;;0.10;0.10;;;3.10;99.90;;;;;;5054848;28;20612;-67
2021/12/04 07:33:12;;;;;;;0.10;0.10;;;3.10;99.90;;;;;;5052666;28;20686;-67
2021/12/04 07:35:41;;;;;;;0.10;0.10;;;3.10;99.90;;;;;;5057309;28;20605;-67
2021/12/04 07:38:10;;;;;;;0.10;0.10;;;3.10;99.90;;;;;;5053477;28;20707;-66
2021/12/04 07:40:38;;;;;;;0.20;0.20;;;3.10;99.90;;;;;;5054470;28;20697;-67
2021/12/04 07:43:07;;;;;;;0.10;0.10;;;3.10;99.90;;;;;;5052075;28;20657;-67
2021/12/04 07:45:35;;;;;;;0.20;0.20;;;3.10;99.90;;;;;;5058849;28;20653;-67
2021/12/04 07:48:02;;;;;;;0.13;0.13;;;3.20;99.90;;;;;;5051273;28;20654;-67
2021/12/04 07:50:29;;;;;;;0.10;0.10;;;3.20;99.90;;;;;;5050939;28;20632;-66
2021/12/04 07:52:58;;;;;;;0.10;0.10;;;3.20;99.90;;;;;;5049962;28;20713;-67
2021/12/04 07:55:27;;;;;;;0.10;0.10;;;3.20;99.90;;;;;;5051854;28;20682;-67
2021/12/04 07:57:55;;;;;;;0.10;0.10;;;3.20;99.90;;;;;;5052853;28;20657;-67
2021/12/04 08:00:23;;;;;;;0.10;0.10;;;3.20;99.90;;;;;;5054012;28;20625;-69
2021/12/04 08:02:51;;;;;;;0.10;0.10;;;3.20;99.90;;;;;;5051137;28;20751;-67
2021/12/04 08:05:19;;;;;;;0.10;0.10;;;3.20;99.90;;;;;;5051742;28;20675;-67
2021/12/04 08:07:46;;;;;;;0.10;0.10;;;3.20;99.90;;;;;;5056524;28;20755;-67
2021/12/04 08:10:18;;;;;;;0.10;0.10;;;3.20;99.90;;;;;;5058150;28;20624;-67
2021/12/04 08:12:45;;;;;;;0.10;0.10;;;3.20;99.90;;;;;;5054266;28;20621;-68
2021/12/04 08:15:13;;;;;;;0.10;0.10;;;3.20;99.90;;;;;;5056105;28;20617;-67
2021/12/04 08:17:42;;;;;;;0.10;0.10;;;3.20;99.90;;;;;;5054930;28;20667;-67
2021/12/04 08:20:11;;;;;;;0.10;0.10;;;3.20;99.90;;;;;;5049748;28;20620;-67
2021/12/04 08:22:39;;;;;;;0.10;0.10;;;3.20;99.90;;;;;;5054722;28;20662;-68
2021/12/04 08:25:08;;;;;;;0.10;0.10;;;3.20;99.90;;;;;;5064046;28;21186;-67
2021/12/04 08:27:36;;;;;;;0.10;0.10;;;3.30;99.90;;;;;;5054234;28;20719;-66
2021/12/04 08:30:06;;;;;;;0.13;0.13;;;3.30;99.90;;;;;;5062358;28;20629;-67
2021/12/04 08:32:33;;;;;;;0.13;0.13;;;3.30;99.90;;;;;;5056878;28;21244;-66
2021/12/04 08:35:02;;;;;;;0.10;0.10;;;3.40;99.90;;;;;;5058042;28;20613;-67
2021/12/04 08:37:29;;;;;;;0.10;0.10;;;3.40;99.90;;;;;;5051640;28;20664;-67
2021/12/04 08:39:56;;;;;;;0.17;0.17;;;3.50;99.90;;;;;;5056068;28;20632;-67
2021/12/04 08:42:24;;;;;;;0.10;0.10;;;3.50;99.90;;;;;;5056593;28;20636;-67
2021/12/04 08:44:53;;;;;;;0.17;0.17;;;3.50;99.90;;;;;;5057546;28;20620;-67
2021/12/04 08:47:20;;;;;;;0.10;0.10;;;3.50;99.90;;;;;;5054242;28;20656;-67
2021/12/04 08:49:47;;;;;;;0.10;0.10;;;3.50;99.90;;;;;;5056402;28;20679;-68
2021/12/04 08:52:17;;;;;;;0.10;0.10;;;3.50;99.90;;;;;;5054870;28;20731;-67
2021/12/04 08:54:45;;;;;;;0.10;0.10;;;3.60;99.90;;;;;;5064563;28;20625;-67
2021/12/04 08:57:13;;;;;;;0.10;0.10;;;3.60;99.90;;;;;;5065946;28;20637;-67
2021/12/04 08:59:40;;;;;;;0.20;0.20;;;3.60;99.90;;;;;;5060891;28;20671;-68
2021/12/04 09:02:10;;;;;;;0.10;0.10;;;3.60;99.90;;;;;;5062108;28;20679;-67
2021/12/04 09:04:39;;;;;;;0.10;0.10;;;3.60;99.90;;;;;;5058567;28;20609;-67
2021/12/04 09:07:07;;;;;;;0.10;0.10;;;3.70;99.90;;;;;;5057352;28;21239;-68
2021/12/04 09:09:35;;;;;;;0.10;0.10;;;3.70;99.90;;;;;;5068111;28;20617;-67
2021/12/04 09:12:06;;;;;;;0.20;0.20;;;3.70;99.90;;;;;;5065571;28;20613;-68
2021/12/04 09:14:36;;;;;;;0.10;0.10;;;3.70;99.90;;;;;;5066254;28;20627;-67
2021/12/04 09:17:06;;;;;;;0.10;0.10;;;3.70;99.90;;;;;;5060456;28;20644;-67
2021/12/04 09:19:35;;;;;;;0.10;0.10;;;3.80;99.90;;;;;;5060279;28;20627;-67
2021/12/04 09:22:05;;;;;;;0.10;0.10;;;3.70;99.90;;;;;;5061563;28;20722;-67
2021/12/04 09:24:39;;;;;;;0.10;0.10;;;3.70;99.90;;;;;;5059881;28;20709;-68
2021/12/04 09:27:19;;;;;;;0.10;0.10;;;3.70;99.90;;;;;;5054579;28;20763;-67
2021/12/04 09:32:51;;;;;;;0.10;0.10;;;3.70;99.90;;;;;;5056976;28;20602;-67
2021/12/04 09:35:38;;;;;;;0.10;0.10;;;3.70;99.90;;;;;;5068661;28;20618;-67
2021/12/04 10:00:48;;;;;;;0.10;0.10;;;3.90;99.90;;;;;;4988120;28;20652;-66
2021/12/04 10:03:37;;;;;;;0.10;0.10;;;4.00;99.90;;;;;;5045372;28;20656;-68
2021/12/04 10:06:28;;;;;;;0.10;0.10;;;4.00;99.90;;;;;;5063678;28;20648;-68
2021/12/04 10:20:30;;;;;;;0.10;0.10;;;4.00;99.90;;;;;;5057935;28;21156;-67
2021/12/04 10:34:17;;;;;;;0.20;0.20;;;4.20;99.90;;;;;;5058040;28;20659;-68
2021/12/04 10:36:44;;;;;;;0.10;0.10;;;4.20;99.90;;;;;;5058085;28;20747;-67
2021/12/04 10:39:12;;;;;;;0.10;0.10;;;4.20;99.90;;;;;;5059705;28;20642;-67
2021/12/04 10:41:44;;;;;;;0.10;0.10;;;4.20;99.90;;;;;;5058657;28;20609;-68
2021/12/04 10:44:19;;;;;;;0.10;0.10;;;4.20;99.90;;;;;;5057244;28;20654;-68
2021/12/04 10:46:59;;;;;;;0.10;0.10;;;4.20;99.90;;;;;;5065724;28;20995;-67
2021/12/04 10:49:51;;;;;;;0.10;0.10;;;4.20;99.90;;;;;;5059270;28;20723;-68
2021/12/04 10:52:24;;;;;;;0.10;0.10;;;4.30;99.90;;;;;;5056689;28;21250;-68
2021/12/04 10:55:10;;;;;;;0.10;0.10;;;4.30;99.90;;;;;;5064801;28;20652;-68
2021/12/04 11:00:37;;;;;;;0.10;0.10;;;4.30;99.90;;;;;;5063653;28;20633;-68
2021/12/04 11:03:20;;;;;;;0.13;0.13;;;4.40;99.90;;;;;;5058074;28;20652;-66
2021/12/04 11:06:17;;;;;;;0.10;0.10;;;4.40;99.90;;;;;;5062195;28;20665;-67
2021/12/04 11:20:52;;;;;;;0.10;0.10;;;4.50;99.90;;;;;;5060578;28;20602;-68
2021/12/04 11:23:42;;;;;;;0.10;0.10;;;4.50;99.90;;;;;;5062186;28;20646;-67
2021/12/04 11:26:30;;;;;;;0.10;0.10;;;4.50;99.90;;;;;;5061654;28;20633;-66
2021/12/04 11:37:49;;;;;;;0.10;0.10;;;4.70;99.90;;;;;;5057189;28;20649;-67
2021/12/04 11:40:31;;;;;;;0.10;0.10;;;4.70;99.90;;;;;;5059563;28;20624;-67
2021/12/04 11:43:07;;;;;;;0.10;0.10;;;4.70;99.90;;;;;;5057294;28;20609;-67
2021/12/04 11:45:44;;;;;;;0.10;0.10;;;4.70;99.90;;;;;;5058803;28;20644;-67
2021/12/04 11:48:14;;;;;;;0.13;0.13;;;4.60;99.90;;;;;;5056878;28;20649;-67
2021/12/04 11:50:53;;;;;;;0.10;0.10;;;4.60;99.90;;;;;;5057943;28;20697;-65
2021/12/04 11:53:21;;;;;;;0.10;0.10;;;4.60;99.90;;;;;;5058307;28;20618;-68
2021/12/04 11:55:51;;;;;;;0.10;0.10;;;4.60;99.90;;;;;;5061488;28;20617;-69
2021/12/04 11:58:24;;;;;;;0.10;0.10;;;4.70;99.90;;;;;;5063960;28;20657;-68
2021/12/04 12:00:55;;;;;;;0.13;0.13;;;4.70;99.90;;;;;;5060593;28;20728;-67
2021/12/04 12:03:27;;;;;;;0.10;0.10;;;4.70;99.90;;;;;;5061452;28;20645;-67
2021/12/04 12:05:56;;;;;;;0.10;0.10;;;4.70;99.90;;;;;;5062321;28;20620;-67
2021/12/04 12:08:28;;;;;;;0.10;0.10;;;4.80;99.90;;;;;;5059612;28;20660;-66
2021/12/04 12:10:59;;;;;;;0.10;0.10;;;4.80;99.90;;;;;;5063652;28;20644;-66
2021/12/04 12:13:32;;;;;;;0.10;0.10;;;4.80;99.90;;;;;;5060666;28;21112;-66
2021/12/04 12:16:08;;;;;;;0.10;0.10;;;4.80;99.90;;;;;;5064545;28;20626;-66
2021/12/04 12:18:55;;;;;;;0.10;0.10;;;4.80;99.90;;;;;;5069342;28;20617;-66
2021/12/04 12:21:28;;;;;;;0.10;0.10;;;4.80;99.90;;;;;;5076362;28;20652;-66
2021/12/04 12:27:19;;;;;;;0.17;0.17;;;4.80;99.90;;;;;;5058337;28;20642;-67
2021/12/04 12:32:56;;;;;;;0.10;0.10;;;4.80;99.90;;;;;;5076618;28;20624;-65
2021/12/04 12:38:17;;;;;;;0.10;0.10;;;4.70;99.90;;;;;;5062624;28;20648;-68
2021/12/04 12:40:57;;;;;;;0.10;0.10;;;4.70;99.90;;;;;;5067471;28;20728;-66
2021/12/04 12:43:33;;;;;;;0.10;0.10;;;4.70;99.90;;;;;;5064047;28;20660;-65
2021/12/04 12:46:00;;;;;;;0.10;0.10;;;4.70;99.90;;;;;;5064928;28;20632;-66
2021/12/04 12:48:28;;;;;;;0.10;0.10;;;4.60;99.90;;;;;;5061410;28;20684;-67
2021/12/04 12:51:06;;;;;;;0.10;0.10;;;4.60;99.90;;;;;;5063706;28;20613;-67
2021/12/04 12:53:42;;;;;;;0.10;0.10;;;4.60;99.90;;;;;;5058944;28;20618;-67
2021/12/04 12:56:12;;;;;;;0.10;0.10;;;4.60;99.90;;;;;;5057135;28;20619;-65
2021/12/04 12:58:42;;;;;;;0.10;0.10;;;4.60;99.90;;;;;;5069020;28;20706;-67
2021/12/04 13:12:49;;;;;;;0.10;0.10;;;4.50;99.90;;;;;;5063159;28;20685;-67
2021/12/04 13:15:30;;;;;;;0.10;0.10;;;4.60;99.90;;;;;;5075368;28;20617;-66
2021/12/04 13:18:12;;;;;;;0.10;0.10;;;4.60;99.90;;;;;;5060084;28;20648;-66
2021/12/04 13:20:40;;;;;;;0.10;0.10;;;4.60;99.90;;;;;;5060125;28;20621;-65
2021/12/04 13:23:15;;;;;;;0.10;0.10;;;4.60;99.90;;;;;;5059914;28;20671;-65
2021/12/04 13:25:51;;;;;;;0.10;0.10;;;4.60;99.90;;;;;;5061715;28;20625;-66
2021/12/04 13:28:19;;;;;;;0.10;0.10;;;4.60;99.90;;;;;;5064353;28;20667;-66
2021/12/04 13:30:46;;;;;;;0.10;0.10;;;4.50;99.90;;;;;;5064272;28;20665;-66
2021/12/04 13:33:13;;;;;;;0.10;0.10;;;4.50;99.90;;;;;;5054530;28;20625;-67
2021/12/04 13:35:45;;;;;;;0.10;0.10;;;4.50;99.90;;;;;;5052468;28;20629;-68
2021/12/04 13:38:14;;;;;;;0.10;0.10;;;4.50;99.90;;;;;;5062238;28;20747;-67
2021/12/04 13:40:45;;;;;;;0.10;0.10;;;4.50;99.90;;;;;;5055563;28;20748;-68
2021/12/04 13:43:13;;;;;;;0.10;0.10;;;4.40;99.90;;;;;;5054197;28;20605;-68
2021/12/04 13:45:41;;;;;;;0.10;0.10;;;4.40;99.90;;;;;;5054027;28;20660;-67
2021/12/04 13:48:08;;;;;;;0.10;0.10;;;4.40;99.90;;;;;;5055881;28;20734;-67
2021/12/04 13:50:45;;;;;;;0.10;0.10;;;4.40;99.90;;;;;;5056828;28;20621;-67
2021/12/04 13:53:18;;;;;;;0.10;0.10;;;4.40;99.90;;;;;;5052246;28;20627;-67
2021/12/04 13:55:52;;;;;;;0.10;0.10;;;4.40;99.90;;;;;;5061899;28;20637;-67
2021/12/04 13:58:20;;;;;;;0.10;0.10;;;4.40;99.90;;;;;;5055399;28;20650;-68
2021/12/04 14:00:47;;;;;;;0.10;0.10;;;4.40;99.90;;;;;;5055975;28;20651;-69
2021/12/04 14:03:14;;;;;;;0.10;0.10;;;4.40;99.90;;;;;;5055353;28;20627;-69
2021/12/04 14:05:41;;;;;;;0.10;0.10;;;4.40;99.90;;;;;;5055097;28;20653;-68
2021/12/04 14:08:10;;;;;;;0.10;0.10;;;4.40;99.90;;;;;;5056928;28;20676;-68
2021/12/04 14:10:42;;;;;;;0.10;0.10;;;4.30;99.90;;;;;;5052163;28;20633;-67
2021/12/04 14:13:10;;;;;;;0.10;0.10;;;4.30;99.90;;;;;;5054290;28;20640;-69
2021/12/04 14:15:42;;;;;;;0.10;0.10;;;4.30;99.90;;;;;;5057515;28;20708;-68
2021/12/04 14:18:11;;;;;;;0.10;0.10;;;4.30;99.90;;;;;;5056907;28;20756;-68
2021/12/04 14:20:40;;;;;;;0.10;0.10;;;4.30;99.90;;;;;;5057037;28;20614;-69
2021/12/04 14:23:08;;;;;;;0.10;0.10;;;4.30;99.90;;;;;;5052979;28;20626;-69
2021/12/04 14:25:42;;;;;;;0.10;0.10;;;4.30;99.90;;;;;;5049602;28;20744;-68
2021/12/04 14:28:12;;;;;;;0.10;0.10;;;4.30;99.90;;;;;;5056901;28;20664;-68
2021/12/04 14:30:43;;;;;;;0.10;0.10;;;4.30;99.90;;;;;;5051711;28;20670;-69
2021/12/04 14:33:11;;;;;;;0.10;0.10;;;4.30;99.90;;;;;;5052254;28;20625;-68
2021/12/04 14:35:41;;;;;;;0.10;0.10;;;4.30;99.90;;;;;;5054174;28;20621;-67
2021/12/04 14:38:10;;;;;;;0.10;0.10;;;4.30;99.90;;;;;;5052240;28;20755;-66
2021/12/04 14:40:40;;;;;;;0.10;0.10;;;4.20;99.90;;;;;;5052230;28;20652;-68
2021/12/04 14:43:11;;;;;;;0.10;0.10;;;4.20;99.90;;;;;;5055459;28;20631;-68
2021/12/04 14:45:43;;;;;;;0.10;0.10;;;4.20;99.90;;;;;;5060517;28;20750;-68
2021/12/04 14:48:13;;;;;;;0.10;0.10;;;4.20;99.90;;;;;;5055095;28;20642;-68
2021/12/04 14:50:42;;;;;;;0.10;0.10;;;4.10;99.90;;;;;;5061221;28;20629;-69
2021/12/04 14:53:13;;;;;;;0.10;0.10;;;4.10;99.90;;;;;;5053918;28;20629;-67
2021/12/04 14:55:42;;;;;;;0.10;0.10;;;4.10;99.90;;;;;;5054942;28;20626;-69
2021/12/04 14:58:14;;;;;;;0.10;0.10;;;4.00;99.90;;;;;;5060221;28;20680;-68
2021/12/04 15:00:44;;;;;;;0.10;0.10;;;4.00;99.90;;;;;;5052169;28;20660;-67
2021/12/04 15:03:14;;;;;;;0.10;0.10;;;4.00;99.90;;;;;;5052766;28;20617;-67
2021/12/04 15:05:43;;;;;;;0.10;0.10;;;4.00;99.90;;;;;;5052222;28;20664;-68
2021/12/04 15:08:13;;;;;;;0.10;0.10;;;4.00;99.90;;;;;;5054592;28;21083;-68
2021/12/04 15:10:41;;;;;;;0.10;0.10;;;4.00;99.90;;;;;;5051765;28;20671;-68
2021/12/04 15:13:19;;;;;;;0.10;0.10;;;3.90;99.90;;;;;;5059737;28;20613;-68
2021/12/04 15:15:47;;;;;;;0.10;0.10;;;3.90;99.90;;;;;;5054019;28;20628;-67
2021/12/04 15:18:16;;;;;;;0.10;0.10;;;3.90;99.90;;;;;;5047465;28;20644;-65
2021/12/04 15:20:55;;;;;;;0.10;0.10;;;3.90;99.90;;;;;;5051107;28;20618;-67
2021/12/04 15:23:25;;;;;;;0.10;0.10;;;3.90;99.90;;;;;;5050685;28;20631;-66
2021/12/04 15:25:55;;;;;;;0.10;0.10;;;3.90;99.90;;;;;;5050011;28;20660;-67
2021/12/04 15:28:28;;;;;;;0.10;0.10;;;3.90;99.90;;;;;;5060763;28;20706;-66
2021/12/04 15:30:57;;;;;;;0.10;0.10;;;3.90;99.90;;;;;;5050647;28;20696;-67
2021/12/04 15:33:28;;;;;;;0.10;0.10;;;3.90;99.90;;;;;;5053101;28;20633;-67